createdAt,value
2019-02-18T00:04:49.283Z,96.30
2019-02-18T00:09:55.022Z,88.37
2019-02-18T00:15:00.705Z,93.97
2019-02-18T00:20:05.822Z,92.63
2019-02-18T00:25:11.533Z,95.23
2019-02-18T00:30:15.806Z,91.97
2019-02-18T00:35:21.525Z,90.60
2019-02-18T00:40:27.210Z,94.20
2019-02-18T00:45:31.390Z,91.20
2019-02-18T00:50:35.954Z,93.00
2019-02-18T00:55:40.207Z,91.60
2019-02-18T01:00:45.321Z,94.03
2019-02-18T01:05:50.236Z,95.30
2019-02-18T01:10:55.395Z,98.40
2019-02-18T01:16:00.058Z,103.03
2019-02-18T01:21:04.441Z,104.33
2019-02-18T01:26:09.257Z,93.07
2019-02-18T01:31:13.565Z,96.60
2019-02-18T01:36:17.741Z,95.33
2019-02-18T01:41:22.376Z,100.50
2019-02-18T01:46:26.567Z,105.43
2019-02-18T01:51:30.730Z,99.80
2019-02-18T01:56:35.488Z,99.47
2019-02-18T02:01:39.638Z,99.70
2019-02-18T02:06:43.990Z,98.93
2019-02-18T02:11:48.248Z,91.67
2019-02-18T02:16:52.379Z,100.40
2019-02-18T02:21:56.614Z,99.47
2019-02-18T02:27:00.777Z,101.70
2019-02-18T02:32:05.725Z,101.53
2019-02-18T02:37:10.269Z,101.70
2019-02-18T02:42:15.992Z,103.93
2019-02-18T02:47:20.355Z,106.73
2019-02-18T02:52:24.522Z,98.13
2019-02-18T02:57:28.674Z,102.17
2019-02-18T03:02:32.823Z,99.53
2019-02-18T03:07:38.173Z,102.53
2019-02-18T03:12:42.345Z,97.07
2019-02-18T03:17:46.542Z,100.93
2019-02-18T03:22:50.785Z,100.30
2019-02-18T03:28:01.488Z,98.07
2019-02-18T03:33:07.416Z,99.80
2019-02-18T03:38:11.903Z,96.97
2019-02-18T03:43:16.424Z,100.40
2019-02-18T03:48:20.955Z,91.17
2019-02-18T03:53:25.426Z,104.17
2019-02-18T03:58:29.598Z,95.90
2019-02-18T04:03:33.959Z,95.10
2019-02-18T04:08:43.059Z,101.53
2019-02-18T04:13:44.250Z,100.47
2019-02-18T04:18:48.522Z,93.20
2019-02-18T04:23:52.741Z,95.87
2019-02-18T04:28:57.371Z,96.47
2019-02-18T04:34:01.625Z,95.80
2019-02-18T04:39:05.932Z,95.90
2019-02-18T04:44:10.159Z,93.93
2019-02-18T04:49:15.185Z,93.60
2019-02-18T04:54:19.494Z,92.47
2019-02-18T04:59:23.861Z,95.40
2019-02-18T05:04:28.083Z,87.07
2019-02-18T05:09:32.477Z,92.83
2019-02-18T05:14:36.739Z,97.63
2019-02-18T05:19:41.056Z,97.00
2019-02-18T05:24:45.325Z,93.40
2019-02-18T05:29:49.590Z,89.40
2019-02-18T05:34:54.042Z,87.43
2019-02-18T05:39:58.750Z,82.17
2019-02-18T05:45:04.198Z,90.63
2019-02-18T05:50:09.886Z,88.13
2019-02-18T05:55:15.594Z,87.20
2019-02-18T06:00:19.767Z,87.37
2019-02-18T06:05:25.470Z,92.50
2019-02-18T06:10:29.723Z,82.50
2019-02-18T06:15:34.168Z,84.43
2019-02-18T06:20:38.754Z,90.57
2019-02-18T06:25:43.847Z,84.03
2019-02-18T06:30:48.130Z,90.03
2019-02-18T06:35:52.377Z,81.80
2019-02-18T06:40:56.642Z,90.13
2019-02-18T06:46:00.954Z,85.30
2019-02-18T06:51:05.480Z,83.60
2019-02-18T06:56:10.136Z,80.37
2019-02-18T07:01:15.251Z,83.83
2019-02-18T07:06:19.815Z,79.80
2019-02-18T07:11:24.494Z,83.23
2019-02-18T07:16:28.662Z,78.67
2019-02-18T07:21:32.823Z,80.40
2019-02-18T07:26:37.151Z,78.70
2019-02-18T07:31:41.409Z,79.43
2019-02-18T07:36:45.845Z,76.20
2019-02-18T07:41:50.502Z,80.40
2019-02-18T07:46:56.205Z,72.80
2019-02-18T07:52:00.374Z,77.30
2019-02-18T07:57:05.263Z,77.10
2019-02-18T08:02:09.990Z,79.83
2019-02-18T08:07:15.738Z,78.40
2019-02-18T08:12:19.899Z,77.33
2019-02-18T08:17:24.184Z,75.30
2019-02-18T08:22:28.353Z,75.07
2019-02-18T08:27:32.510Z,75.37
2019-02-18T08:32:36.670Z,79.03
2019-02-18T08:37:41.823Z,78.40
2019-02-18T08:42:45.931Z,73.17
2019-02-18T08:47:50.999Z,75.60
2019-02-18T08:52:56.089Z,77.60
2019-02-18T08:58:00.554Z,76.53
2019-02-18T09:03:05.305Z,71.43
2019-02-18T09:08:10.994Z,70.87
2019-02-18T09:13:16.681Z,65.77
2019-02-18T09:18:21.654Z,69.80
2019-02-18T09:23:26.511Z,66.83
2019-02-18T09:28:31.028Z,64.83
2019-02-18T09:33:35.634Z,66.63
2019-02-18T09:38:39.854Z,64.43
2019-02-18T09:43:44.490Z,70.00
2019-02-18T09:48:48.645Z,65.43
2019-02-18T09:53:52.822Z,66.67
2019-02-18T09:58:56.945Z,60.67
2019-02-18T10:04:01.243Z,63.33
2019-02-18T10:09:05.900Z,67.10
2019-02-18T10:14:11.692Z,63.63
2019-02-18T10:19:17.402Z,66.03
2019-02-18T10:24:21.811Z,64.20
2019-02-18T10:29:26.131Z,58.30
2019-02-18T10:34:30.386Z,60.83
2019-02-18T10:39:36.101Z,59.93
2019-02-18T10:44:40.362Z,62.27
2019-02-18T10:49:44.603Z,61.20
2019-02-18T10:54:49.665Z,58.40
2019-02-18T10:59:54.295Z,57.23
2019-02-18T11:04:58.451Z,59.57
2019-02-18T11:10:02.844Z,59.37
2019-02-18T11:15:08.775Z,60.87
2019-02-18T11:20:14.403Z,52.13
2019-02-18T11:25:19.631Z,54.97
2019-02-18T11:30:24.094Z,56.13
2019-02-18T11:35:28.481Z,56.43
2019-02-18T11:40:33.224Z,54.20
2019-02-18T11:45:37.416Z,55.63
2019-02-18T11:50:41.622Z,51.97
2019-02-18T11:55:46.163Z,54.20
2019-02-18T12:00:50.420Z,49.70
2019-02-18T12:05:54.844Z,53.50
2019-02-18T12:10:59.306Z,55.90
2019-02-18T12:16:04.051Z,53.17
2019-02-18T12:21:09.088Z,54.77
2019-02-18T12:26:14.239Z,49.57
2019-02-18T12:31:19.644Z,49.23
2019-02-18T12:36:24.386Z,49.83
2019-02-18T12:41:29.710Z,49.73
2019-02-18T12:46:34.334Z,53.37
2019-02-18T12:51:38.843Z,47.67
2019-02-18T12:56:43.635Z,48.53
2019-02-18T13:01:48.227Z,48.67
2019-02-18T13:06:52.470Z,50.00
2019-02-18T13:11:59.074Z,45.90
2019-02-18T13:17:02.660Z,47.17
2019-02-18T13:22:06.865Z,46.43
2019-02-18T13:27:11.159Z,44.03
2019-02-18T13:32:17.014Z,46.87
2019-02-18T13:37:21.359Z,47.63
2019-02-18T13:42:25.723Z,45.87
2019-02-18T13:47:29.970Z,43.27
2019-02-18T13:52:34.817Z,41.83
2019-02-18T13:57:39.353Z,45.03
2019-02-18T14:02:43.845Z,42.57
2019-02-18T14:07:48.166Z,41.90
2019-02-18T14:12:52.706Z,42.53
2019-02-18T14:17:57.973Z,41.63
2019-02-18T14:23:02.233Z,38.87
2019-02-18T14:28:07.278Z,42.83
2019-02-18T14:33:11.562Z,41.87
2019-02-18T14:38:17.290Z,39.67
2019-02-18T14:43:21.539Z,38.57
2019-02-18T14:48:27.662Z,41.43
2019-02-18T14:53:31.901Z,38.77
2019-02-18T14:58:36.954Z,38.73
2019-02-18T15:03:41.349Z,38.50
2019-02-18T15:08:45.955Z,39.17
2019-02-18T15:13:50.218Z,41.77
2019-02-18T15:18:55.131Z,39.50
2019-02-18T15:23:59.459Z,38.33
2019-02-18T15:29:04.046Z,42.13
2019-02-18T15:34:08.706Z,39.10
2019-02-18T15:39:14.105Z,37.37
2019-02-18T15:44:19.977Z,40.37
2019-02-18T15:49:24.583Z,37.57
2019-02-18T15:54:28.881Z,36.30
2019-02-18T15:59:33.375Z,37.10
2019-02-18T16:04:41.036Z,38.97
2019-02-18T16:09:45.413Z,37.37
2019-02-18T16:14:50.004Z,40.63
2019-02-18T16:19:54.306Z,39.30
2019-02-18T16:24:58.825Z,37.13
2019-02-18T16:30:03.218Z,39.33
2019-02-18T16:35:08.778Z,38.87
2019-02-18T16:40:16.610Z,38.30
2019-02-18T16:45:21.199Z,37.73
2019-02-18T16:50:25.467Z,36.90
2019-02-18T16:55:29.954Z,38.47
2019-02-18T17:00:35.054Z,41.63
2019-02-18T17:05:39.457Z,37.50
2019-02-18T17:10:43.814Z,39.60
2019-02-18T17:15:48.292Z,40.67
2019-02-18T17:20:53.478Z,40.43
2019-02-18T17:25:58.486Z,39.13
2019-02-18T17:31:03.281Z,41.70
2019-02-18T17:36:08.965Z,40.47
2019-02-18T17:41:14.786Z,42.20
2019-02-18T17:46:19.255Z,40.70
2019-02-18T17:51:25.066Z,37.60
2019-02-18T17:56:29.262Z,41.77
2019-02-18T18:01:33.649Z,44.57
2019-02-18T18:06:38.074Z,45.30
2019-02-18T18:11:42.632Z,46.23
2019-02-18T18:16:47.205Z,40.83
2019-02-18T18:21:51.473Z,41.63
2019-02-18T18:26:55.867Z,45.77
2019-02-18T18:32:00.199Z,46.83
2019-02-18T18:37:05.957Z,47.63
2019-02-18T18:42:11.779Z,45.97
2019-02-18T18:47:17.490Z,48.50
2019-02-18T18:52:21.812Z,48.90
2019-02-18T18:57:26.193Z,52.80
2019-02-18T19:02:30.574Z,52.13
2019-02-18T19:07:35.095Z,57.33
2019-02-18T19:12:39.629Z,51.77
2019-02-18T19:17:43.962Z,64.43
2019-02-18T19:22:48.741Z,65.17
2019-02-18T19:27:52.975Z,65.83
2019-02-18T19:32:57.259Z,70.03
2019-02-18T19:38:01.569Z,67.10
2019-02-18T19:43:06.917Z,60.17
2019-02-18T19:48:12.145Z,64.03
2019-02-18T19:53:16.885Z,69.60
2019-02-18T19:58:21.446Z,66.07
2019-02-18T20:03:25.785Z,61.93
2019-02-18T20:08:30.786Z,68.20
2019-02-18T20:13:35.709Z,71.10
2019-02-18T20:18:40.784Z,74.17
2019-02-18T20:23:46.570Z,71.60
2019-02-18T20:28:50.901Z,67.30
2019-02-18T20:33:55.573Z,80.13
2019-02-18T20:38:59.931Z,81.93
2019-02-18T20:44:07.465Z,89.27
2019-02-18T20:49:11.699Z,81.40
2019-02-18T20:54:17.331Z,81.10
2019-02-18T20:59:21.561Z,81.53
2019-02-18T21:04:27.025Z,87.20
2019-02-18T21:09:31.583Z,78.53
2019-02-18T21:14:36.771Z,83.57
2019-02-18T21:19:41.339Z,95.97
2019-02-18T21:24:45.702Z,103.90
2019-02-18T21:29:50.695Z,119.23
2019-02-18T21:34:55.065Z,103.40
2019-02-18T21:39:59.770Z,107.53
2019-02-18T21:45:05.842Z,114.73
2019-02-18T21:50:10.857Z,115.53
2019-02-18T21:55:17.166Z,113.83
2019-02-18T22:00:22.017Z,111.63
2019-02-18T22:05:27.601Z,113.33
2019-02-18T22:10:32.810Z,119.27
2019-02-18T22:15:37.813Z,111.93
2019-02-18T22:20:42.389Z,117.13
2019-02-18T22:25:46.822Z,114.90
2019-02-18T22:30:51.015Z,119.73
2019-02-18T22:35:55.505Z,122.37
2019-02-18T22:40:59.944Z,122.13
2019-02-18T22:46:04.359Z,116.03
2019-02-18T22:51:09.299Z,122.13
2019-02-18T22:56:13.674Z,122.17
2019-02-18T23:01:18.151Z,128.00
2019-02-18T23:06:23.953Z,128.53
2019-02-18T23:11:28.750Z,126.87
2019-02-18T23:16:32.945Z,133.67
2019-02-18T23:21:38.038Z,134.57
2019-02-18T23:26:42.306Z,134.53
2019-02-18T23:31:47.046Z,131.83
2019-02-18T23:36:51.321Z,133.70
2019-02-18T23:41:57.517Z,123.27
2019-02-18T23:47:01.783Z,131.13
2019-02-18T23:52:06.694Z,140.37
2019-02-18T23:57:10.873Z,141.67
